Oxbow, Canada
Current Conditions -  °F | °C
As of 11:00 AM on Friday 24 Oct 2014 (Local Time) from CYEN Reporting Station
Broken Clouds Broken Clouds  
Wind Chill: 59°   Ceiling: 10000
Heat Index: 59°   Visibility: 15mi
Dew Point: 34°   Wind: 24mph
Humidity: 39%   Direction: 270°W
Pressure: 29.81"   Gusts: 37mph
Location:  49.22°N, 102.17°W
Report Text: CYEN 241700Z 27021G32KT 15SM BKN100 BKN150 15/01 A2981 RMKAC5AC2 SLP107
Loading
Personal Weather Stations






























Interactive Weather Map
Tropical Storm Tracking
New forecast layout! Learn more

10-Day Weather Forecast

Advertisements
Track Severe Weather on mobile